createdAt,value
2023-03-13T00:02:52.454Z,55.38
2023-03-13T00:05:58.106Z,55.33
2023-03-13T00:09:02.715Z,55.39
2023-03-13T00:12:04.588Z,55.35
2023-03-13T00:15:06.595Z,55.35
2023-03-13T00:18:08.107Z,55.25
2023-03-13T00:21:10.142Z,55.28
2023-03-13T00:24:12.303Z,55.32
2023-03-13T00:27:13.814Z,55.32
2023-03-13T00:30:16.528Z,55.25
2023-03-13T00:33:18.009Z,55.12
2023-03-13T00:36:25.632Z,55.26
2023-03-13T00:39:27.131Z,55.22
2023-03-13T00:42:28.626Z,55.30
2023-03-13T00:45:30.118Z,55.25
2023-03-13T00:48:33.071Z,55.20
2023-03-13T00:51:34.766Z,55.22
2023-03-13T00:54:36.327Z,55.38
2023-03-13T00:57:38.432Z,55.10
2023-03-13T01:00:39.941Z,55.14
2023-03-13T01:03:43.092Z,54.97
2023-03-13T01:06:44.603Z,55.15
2023-03-13T01:09:46.075Z,55.08
2023-03-13T01:12:47.506Z,55.02
2023-03-13T01:15:49.036Z,55.09
2023-03-13T01:18:53.586Z,54.79
2023-03-13T01:21:55.177Z,55.06
2023-03-13T01:24:56.766Z,54.93
2023-03-13T01:27:58.218Z,54.95
2023-03-13T01:31:00.446Z,54.95
2023-03-13T01:34:04.838Z,54.91
2023-03-13T01:37:06.386Z,54.87
2023-03-13T01:40:08.457Z,54.87
2023-03-13T01:43:28.084Z,54.86
2023-03-13T01:46:32.624Z,54.87
2023-03-13T01:49:37.243Z,54.99
2023-03-13T01:52:45.943Z,54.87
2023-03-13T01:55:55.526Z,54.85
2023-03-13T01:58:59.256Z,54.84
2023-03-13T02:02:04.415Z,55.02
2023-03-13T02:05:07.102Z,55.26
2023-03-13T02:08:23.600Z,55.23
2023-03-13T02:11:28.066Z,55.45
2023-03-13T02:14:33.439Z,55.49
2023-03-13T02:17:37.039Z,55.58
2023-03-13T02:20:40.345Z,55.62
2023-03-13T02:24:20.883Z,55.68
2023-03-13T02:27:22.730Z,55.76
2023-03-13T02:30:24.646Z,55.94
2023-03-13T02:33:32.449Z,55.75
2023-03-13T02:36:33.976Z,55.71
2023-03-13T02:39:36.426Z,55.79
2023-03-13T02:42:39.118Z,55.94
2023-03-13T02:45:40.636Z,56.22
2023-03-13T02:48:46.522Z,55.96
2023-03-13T02:51:48.506Z,55.97
2023-03-13T02:54:56.166Z,56.08
2023-03-13T02:57:57.613Z,56.02
2023-03-13T03:01:00.744Z,56.07
2023-03-13T03:04:02.401Z,56.08
2023-03-13T03:07:05.701Z,56.39
2023-03-13T03:10:08.586Z,56.16
2023-03-13T03:13:10.958Z,56.17
2023-03-13T03:16:15.386Z,56.24
2023-03-13T03:19:16.962Z,56.33
2023-03-13T03:22:18.657Z,56.36
2023-03-13T03:25:20.164Z,56.41
2023-03-13T03:28:22.436Z,56.49
2023-03-13T03:31:24.292Z,56.56
2023-03-13T03:34:25.951Z,56.67
2023-03-13T03:37:27.851Z,56.64
2023-03-13T03:40:30.279Z,56.50
2023-03-13T03:43:32.255Z,56.53
2023-03-13T03:46:34.659Z,56.54
2023-03-13T03:49:36.386Z,56.51
2023-03-13T03:52:38.873Z,56.56
2023-03-13T03:55:40.488Z,56.64
2023-03-13T03:58:42.193Z,56.73
2023-03-13T04:02:06.954Z,56.43
2023-03-13T04:05:09.289Z,56.47
2023-03-13T04:08:14.677Z,56.63
2023-03-13T04:11:16.674Z,57.16
2023-03-13T04:14:23.800Z,56.77
2023-03-13T04:17:26.068Z,56.65
2023-03-13T04:20:28.749Z,56.65
2023-03-13T04:23:30.520Z,56.30
2023-03-13T04:26:32.099Z,56.82
2023-03-13T04:29:34.946Z,56.78
2023-03-13T04:32:55.977Z,56.68
2023-03-13T04:35:57.557Z,56.76
2023-03-13T04:39:26.081Z,56.80
2023-03-13T04:42:41.929Z,56.70
2023-03-13T04:45:59.719Z,56.69
2023-03-13T04:49:19.818Z,56.79
2023-03-13T04:52:42.533Z,56.28
2023-03-13T04:56:00.071Z,56.62
2023-03-13T04:59:20.307Z,56.79
2023-03-13T05:02:44.660Z,56.60
2023-03-13T05:05:58.753Z,56.70
2023-03-13T05:09:20.517Z,56.73
2023-03-13T05:12:52.933Z,56.70
2023-03-13T05:16:20.912Z,56.78
2023-03-13T05:19:41.099Z,56.51
2023-03-13T05:22:56.495Z,56.65
2023-03-13T05:26:27.366Z,56.79
2023-03-13T05:29:40.821Z,56.60
2023-03-13T05:33:02.243Z,56.77
2023-03-13T05:36:29.780Z,56.72
2023-03-13T05:39:57.549Z,56.88
2023-03-13T05:43:19.286Z,56.43
2023-03-13T05:46:43.816Z,56.92
2023-03-13T05:50:04.861Z,56.89
2023-03-13T05:53:44.977Z,56.94
2023-03-13T05:57:22.106Z,56.94
2023-03-13T06:00:29.676Z,56.98
2023-03-13T06:03:57.637Z,57.03
2023-03-13T06:07:00.341Z,56.91
2023-03-13T06:10:03.986Z,56.94
2023-03-13T06:13:19.073Z,56.94
2023-03-13T06:16:23.033Z,57.06
2023-03-13T06:19:25.413Z,56.93
2023-03-13T06:22:27.030Z,56.86
2023-03-13T06:25:28.535Z,56.84
2023-03-13T06:28:30.081Z,56.77
2023-03-13T06:31:32.605Z,56.72
2023-03-13T06:34:34.336Z,56.62
2023-03-13T06:37:36.083Z,56.41
2023-03-13T06:40:37.762Z,56.42
2023-03-13T06:43:40.722Z,56.24
2023-03-13T06:46:42.273Z,56.18
2023-03-13T06:49:43.792Z,56.00
2023-03-13T06:52:47.071Z,56.08
2023-03-13T06:55:51.424Z,56.06
2023-03-13T06:58:52.948Z,56.15
2023-03-13T07:01:54.423Z,56.19
2023-03-13T07:04:55.933Z,56.20
2023-03-13T07:07:57.418Z,56.44
2023-03-13T07:11:01.109Z,56.19
2023-03-13T07:14:15.762Z,56.28
2023-03-13T07:17:18.854Z,56.23
2023-03-13T07:20:20.377Z,56.43
2023-03-13T07:23:25.337Z,56.12
2023-03-13T07:26:26.879Z,56.00
2023-03-13T07:29:28.573Z,56.02
2023-03-13T07:32:34.063Z,55.96
2023-03-13T07:35:35.579Z,55.96
2023-03-13T07:38:37.339Z,55.75
2023-03-13T07:41:40.064Z,56.00
2023-03-13T07:44:41.590Z,56.01
2023-03-13T07:47:43.034Z,55.70
2023-03-13T07:50:44.604Z,55.70
2023-03-13T07:53:49.701Z,55.39
2023-03-13T07:56:51.581Z,55.52
2023-03-13T07:59:53.062Z,55.63
2023-03-13T08:02:54.623Z,55.62
2023-03-13T08:06:05.814Z,55.43
2023-03-13T08:09:07.810Z,55.52
2023-03-13T08:12:10.196Z,55.28
2023-03-13T08:15:11.831Z,55.28
2023-03-13T08:18:13.317Z,55.20
2023-03-13T08:21:17.330Z,55.11
2023-03-13T08:24:18.804Z,55.06
2023-03-13T08:27:20.262Z,55.08
2023-03-13T08:30:21.777Z,55.03
2023-03-13T08:33:23.466Z,54.87
2023-03-13T08:36:31.274Z,54.96
2023-03-13T08:39:32.802Z,54.88
2023-03-13T08:42:34.239Z,55.20
2023-03-13T08:45:35.861Z,54.87
2023-03-13T08:48:37.352Z,54.80
2023-03-13T08:51:40.196Z,54.70
2023-03-13T08:54:41.728Z,54.79
2023-03-13T08:57:43.168Z,54.73
2023-03-13T09:00:44.634Z,54.91
2023-03-13T09:03:46.158Z,54.82
2023-03-13T09:06:47.650Z,54.87
2023-03-13T09:09:49.118Z,54.82
2023-03-13T09:12:50.586Z,54.79
2023-03-13T09:16:12.403Z,54.95
2023-03-13T09:19:14.351Z,54.94
2023-03-13T09:22:15.830Z,54.93
2023-03-13T09:25:17.399Z,55.00
2023-03-13T09:28:18.921Z,54.99
2023-03-13T09:31:23.265Z,55.01
2023-03-13T09:34:25.426Z,55.01
2023-03-13T09:37:26.946Z,54.98
2023-03-13T09:40:28.626Z,55.08
2023-03-13T09:43:44.948Z,54.98
2023-03-13T09:46:59.499Z,54.96
2023-03-13T09:50:16.883Z,55.03
2023-03-13T09:53:31.231Z,55.02
2023-03-13T09:56:50.502Z,55.20
2023-03-13T09:59:58.746Z,55.06
2023-03-13T10:03:26.074Z,55.17
2023-03-13T10:06:30.083Z,55.07
2023-03-13T10:09:33.674Z,54.99
2023-03-13T10:12:44.804Z,55.02
2023-03-13T10:15:52.110Z,55.08
2023-03-13T10:18:58.989Z,55.22
2023-03-13T10:22:03.869Z,55.20
2023-03-13T10:25:11.896Z,55.14
2023-03-13T10:28:22.544Z,55.08
2023-03-13T10:31:36.365Z,55.22
2023-03-13T10:34:53.691Z,55.16
2023-03-13T10:38:03.363Z,55.15
2023-03-13T10:41:23.273Z,55.24
2023-03-13T10:44:31.718Z,55.25
2023-03-13T10:47:35.148Z,55.20
2023-03-13T10:50:36.736Z,55.15
2023-03-13T10:53:38.258Z,55.23
2023-03-13T10:56:39.707Z,55.25
2023-03-13T10:59:45.826Z,55.29
2023-03-13T11:02:47.548Z,55.26
2023-03-13T11:06:00.834Z,55.33
2023-03-13T11:09:05.301Z,55.30
2023-03-13T11:12:17.480Z,55.37
2023-03-13T11:15:39.511Z,55.39
2023-03-13T11:19:12.723Z,55.36
2023-03-13T11:22:14.452Z,55.33
2023-03-13T11:25:22.192Z,55.38
2023-03-13T11:28:57.462Z,55.25
2023-03-13T11:32:03.150Z,55.43
2023-03-13T11:35:18.807Z,55.23
2023-03-13T11:38:28.044Z,55.38
2023-03-13T11:41:41.648Z,55.14
2023-03-13T11:44:43.124Z,55.22
2023-03-13T11:48:02.521Z,55.08
2023-03-13T11:51:26.267Z,55.09
2023-03-13T11:54:46.215Z,55.25
2023-03-13T11:58:20.241Z,55.00
2023-03-13T12:01:26.915Z,55.16
2023-03-13T12:04:36.857Z,55.08
2023-03-13T12:07:45.014Z,55.12
2023-03-13T12:11:06.474Z,55.04
2023-03-13T12:14:22.609Z,55.22
2023-03-13T12:17:30.113Z,55.04
2023-03-13T12:20:50.188Z,54.93
2023-03-13T12:24:12.707Z,54.96
2023-03-13T12:27:32.764Z,54.92
2023-03-13T12:30:42.044Z,54.55
2023-03-13T12:33:58.390Z,54.85
2023-03-13T12:37:21.250Z,54.86
2023-03-13T12:40:41.265Z,54.79
2023-03-13T12:43:49.728Z,55.01
2023-03-13T12:47:08.428Z,54.97
2023-03-13T12:50:45.384Z,55.05
2023-03-13T12:54:17.948Z,54.88
2023-03-13T12:57:43.628Z,54.99
2023-03-13T13:00:47.722Z,54.95
2023-03-13T13:03:56.749Z,54.97
2023-03-13T13:07:18.263Z,54.97
2023-03-13T13:10:25.140Z,54.97
2023-03-13T13:13:32.927Z,54.99
2023-03-13T13:16:34.592Z,55.02
2023-03-13T13:19:41.911Z,55.00
2023-03-13T13:22:47.466Z,55.07
2023-03-13T13:25:50.033Z,55.01
2023-03-13T13:28:51.555Z,55.23
2023-03-13T13:32:01.280Z,54.99
2023-03-13T13:35:10.210Z,55.30
2023-03-13T13:38:18.008Z,55.44
2023-03-13T13:41:19.629Z,55.68
2023-03-13T13:44:26.895Z,55.59
2023-03-13T13:47:32.504Z,55.76
2023-03-13T13:50:34.883Z,55.84
2023-03-13T13:53:45.271Z,55.74
2023-03-13T13:56:49.808Z,55.77
2023-03-13T14:00:16.311Z,55.93
2023-03-13T14:03:28.989Z,55.92
2023-03-13T14:06:35.649Z,56.02
2023-03-13T14:09:40.137Z,55.99
2023-03-13T14:12:47.670Z,55.91
2023-03-13T14:15:52.858Z,56.01
2023-03-13T14:18:55.454Z,56.11
2023-03-13T14:22:08.874Z,55.98
2023-03-13T14:25:10.433Z,56.12
2023-03-13T14:28:23.703Z,56.04
2023-03-13T14:31:29.865Z,56.03
2023-03-13T14:34:32.813Z,56.00
2023-03-13T14:37:46.199Z,56.07
2023-03-13T14:40:49.218Z,56.11
2023-03-13T14:43:50.724Z,56.09
2023-03-13T14:47:00.755Z,56.05
2023-03-13T14:50:12.038Z,56.12
2023-03-13T14:53:19.628Z,56.11
2023-03-13T14:56:21.291Z,56.16
2023-03-13T14:59:28.737Z,56.12
2023-03-13T15:02:32.290Z,56.16
2023-03-13T15:05:34.060Z,56.10
2023-03-13T15:08:37.914Z,56.36
2023-03-13T15:11:54.754Z,56.10
2023-03-13T15:14:56.361Z,56.10
2023-03-13T15:17:57.910Z,55.97
2023-03-13T15:21:14.624Z,55.98
2023-03-13T15:24:16.197Z,56.01
2023-03-13T15:27:20.480Z,55.93
2023-03-13T15:30:23.638Z,55.92
2023-03-13T15:33:28.697Z,55.88
2023-03-13T15:36:31.874Z,55.72
2023-03-13T15:39:33.410Z,55.29
2023-03-13T15:42:34.876Z,55.64
2023-03-13T15:45:37.980Z,55.76
2023-03-13T15:48:41.341Z,55.88
2023-03-13T15:51:42.825Z,55.61
2023-03-13T15:54:48.266Z,55.38
2023-03-13T15:57:50.703Z,55.61
2023-03-13T16:00:52.408Z,55.75
2023-03-13T16:03:54.084Z,55.70
2023-03-13T16:06:55.562Z,55.55
2023-03-13T16:09:57.083Z,55.55
2023-03-13T16:12:58.614Z,55.35
2023-03-13T16:16:00.250Z,54.81
2023-03-13T16:19:04.205Z,55.14
2023-03-13T16:22:05.726Z,54.90
2023-03-13T16:25:08.781Z,54.83
2023-03-13T16:28:14.697Z,54.78
2023-03-13T16:31:24.852Z,54.60
2023-03-13T16:34:26.330Z,54.60
2023-03-13T16:37:27.801Z,54.63
2023-03-13T16:40:33.778Z,54.72
2023-03-13T16:43:35.291Z,54.61
2023-03-13T16:46:40.249Z,54.66
2023-03-13T16:49:41.733Z,54.68
2023-03-13T16:52:43.271Z,54.72
2023-03-13T16:55:44.783Z,54.56
2023-03-13T16:58:47.069Z,54.62
2023-03-13T17:01:48.936Z,54.73
2023-03-13T17:04:50.512Z,54.68
2023-03-13T17:07:52.121Z,54.62
2023-03-13T17:10:54.058Z,54.63
2023-03-13T17:13:55.902Z,54.54
2023-03-13T17:16:57.473Z,54.77
2023-03-13T17:19:58.961Z,54.79
2023-03-13T17:23:01.080Z,54.77
2023-03-13T17:26:03.187Z,54.65
2023-03-13T17:29:07.172Z,54.82
2023-03-13T17:32:11.508Z,54.95
2023-03-13T17:35:13.429Z,54.82
2023-03-13T17:38:14.928Z,55.05
2023-03-13T17:41:19.859Z,54.81
2023-03-13T17:44:21.332Z,54.76
2023-03-13T17:47:24.124Z,54.89
2023-03-13T17:50:27.479Z,54.81
2023-03-13T17:53:28.975Z,54.83
2023-03-13T17:56:38.653Z,54.71
2023-03-13T17:59:40.366Z,54.74
2023-03-13T18:02:41.898Z,54.78
2023-03-13T18:05:43.697Z,54.78
2023-03-13T18:08:45.494Z,54.81
2023-03-13T18:11:48.268Z,54.71
2023-03-13T18:14:49.919Z,54.65
2023-03-13T18:17:52.313Z,54.61
2023-03-13T18:20:54.651Z,54.70
2023-03-13T18:23:57.026Z,54.69
2023-03-13T18:26:58.506Z,54.66
2023-03-13T18:29:59.974Z,54.80
2023-03-13T18:33:01.589Z,54.83
2023-03-13T18:36:03.393Z,54.90
2023-03-13T18:39:08.691Z,55.03
2023-03-13T18:42:10.529Z,55.30
2023-03-13T18:45:17.576Z,55.29
2023-03-13T18:48:19.059Z,55.54
2023-03-13T18:51:24.690Z,55.51
2023-03-13T18:54:26.245Z,55.80
2023-03-13T18:57:27.683Z,55.75
2023-03-13T19:00:30.866Z,56.05
2023-03-13T19:03:32.450Z,56.20
2023-03-13T19:06:36.675Z,56.29
2023-03-13T19:09:43.500Z,56.34
2023-03-13T19:12:46.348Z,56.56
2023-03-13T19:15:47.844Z,56.65
2023-03-13T19:18:50.088Z,56.74
2023-03-13T19:21:55.965Z,56.78
2023-03-13T19:24:57.524Z,56.77
2023-03-13T19:27:59.110Z,56.71
2023-03-13T19:31:00.571Z,56.54
2023-03-13T19:34:02.018Z,56.80
2023-03-13T19:37:03.478Z,56.54
2023-03-13T19:40:25.696Z,56.67
2023-03-13T19:43:27.177Z,56.54
2023-03-13T19:46:29.664Z,56.55
2023-03-13T19:49:31.460Z,56.59
2023-03-13T19:52:32.939Z,56.52
2023-03-13T19:55:34.420Z,56.59
2023-03-13T19:58:36.932Z,56.50
2023-03-13T20:01:38.506Z,56.76
2023-03-13T20:04:42.059Z,56.54
2023-03-13T20:07:43.591Z,56.54
2023-03-13T20:10:45.056Z,56.67
2023-03-13T20:13:46.531Z,56.45
2023-03-13T20:16:48.941Z,56.59
2023-03-13T20:19:50.731Z,56.59
2023-03-13T20:22:54.033Z,56.57
2023-03-13T20:25:55.572Z,56.57
2023-03-13T20:28:57.313Z,56.71
2023-03-13T20:32:04.462Z,56.48
2023-03-13T20:35:10.473Z,56.73
2023-03-13T20:38:12.058Z,56.54
2023-03-13T20:41:14.219Z,56.58
2023-03-13T20:44:15.720Z,56.57
2023-03-13T20:47:17.398Z,56.52
2023-03-13T20:50:19.782Z,56.65
2023-03-13T20:53:22.576Z,56.52
2023-03-13T20:56:24.066Z,56.45
2023-03-13T20:59:25.691Z,56.53
2023-03-13T21:02:27.158Z,56.49
2023-03-13T21:05:28.646Z,56.23
2023-03-13T21:08:30.113Z,56.40
2023-03-13T21:11:33.509Z,56.33
2023-03-13T21:14:36.288Z,56.25
2023-03-13T21:17:38.343Z,56.19
2023-03-13T21:20:39.869Z,55.88
2023-03-13T21:23:41.365Z,56.24
2023-03-13T21:26:42.908Z,55.91
2023-03-13T21:29:47.051Z,55.88
2023-03-13T21:32:49.120Z,55.98
2023-03-13T21:35:50.720Z,55.97
2023-03-13T21:38:52.315Z,56.10
2023-03-13T21:41:53.836Z,55.96
2023-03-13T21:44:55.303Z,56.12
2023-03-13T21:47:56.954Z,55.72
2023-03-13T21:50:58.497Z,55.98
2023-03-13T21:53:59.960Z,56.21
2023-03-13T21:57:01.421Z,55.69
2023-03-13T22:00:07.857Z,55.80
2023-03-13T22:03:09.421Z,55.89
2023-03-13T22:06:15.868Z,55.81
2023-03-13T22:09:17.274Z,55.66
2023-03-13T22:12:18.805Z,55.68
2023-03-13T22:15:20.267Z,55.66
2023-03-13T22:18:21.842Z,55.66
2023-03-13T22:21:23.477Z,55.67
2023-03-13T22:24:25.145Z,55.55
2023-03-13T22:27:26.649Z,55.62
2023-03-13T22:30:28.183Z,55.62
2023-03-13T22:33:29.789Z,55.68
2023-03-13T22:36:31.288Z,55.53
2023-03-13T22:39:32.783Z,55.62
2023-03-13T22:42:34.284Z,55.62
2023-03-13T22:45:36.319Z,55.77
2023-03-13T22:48:38.791Z,55.65
2023-03-13T22:51:40.247Z,55.79
2023-03-13T22:54:41.741Z,55.62
2023-03-13T22:57:43.281Z,55.64
2023-03-13T23:00:44.927Z,55.44
2023-03-13T23:03:46.824Z,55.56
2023-03-13T23:06:48.273Z,55.53
2023-03-13T23:09:49.887Z,55.59
2023-03-13T23:12:51.415Z,55.49
2023-03-13T23:15:56.409Z,55.62
2023-03-13T23:18:58.107Z,55.61
2023-03-13T23:21:59.597Z,55.67
2023-03-13T23:25:01.325Z,55.63
2023-03-13T23:28:02.788Z,55.44
2023-03-13T23:31:11.813Z,55.51
2023-03-13T23:34:13.633Z,55.51
2023-03-13T23:37:15.108Z,55.56
2023-03-13T23:40:16.755Z,55.45
2023-03-13T23:43:18.219Z,55.37
2023-03-13T23:46:26.849Z,55.56
2023-03-13T23:49:28.366Z,55.69
2023-03-13T23:52:30.315Z,55.84
2023-03-13T23:55:32.064Z,56.04
2023-03-13T23:58:34.356Z,56.07
